Time;durP1;ratioP1;P1;durP2;ratioP2;P2;SDS_P1;SDS_P2;PMS_P1;PMS_P2;Temp;Humidity;BMP_temperature;BMP_pressure;BME280_temperature;BME280_humidity;BME280_pressure;Samples;Min_cycle;Max_cycle;Signal;HPM_P1;HPM_P2
2023/09/03 00:00:03;;;;;;;16.85;11.23;;;15.70;99.90;;;;;;4983455;28;20049;-79
2023/09/03 00:02:38;;;;;;;12.50;11.27;;;15.70;99.90;;;;;;4983500;28;20065;-77
2023/09/03 00:05:07;;;;;;;14.00;11.23;;;15.60;99.90;;;;;;4980458;28;20074;-76
2023/09/03 00:07:35;;;;;;;13.85;11.50;;;15.50;99.90;;;;;;4976452;28;20046;-78
2023/09/03 00:10:03;;;;;;;18.48;15.82;;;15.40;99.90;;;;;;4981586;28;20042;-76
2023/09/03 00:12:31;;;;;;;13.25;11.77;;;15.40;99.90;;;;;;4980001;28;20137;-75
2023/09/03 00:14:58;;;;;;;13.57;12.18;;;15.40;99.90;;;;;;4982842;28;20331;-79
2023/09/03 00:17:26;;;;;;;12.98;11.57;;;15.30;99.90;;;;;;4981206;28;20051;-79
2023/09/03 00:19:54;;;;;;;13.52;12.15;;;15.30;99.90;;;;;;4980616;28;20051;-78
2023/09/03 00:22:21;;;;;;;12.63;11.32;;;15.30;99.90;;;;;;4980482;28;20197;-75
2023/09/03 00:24:50;;;;;;;13.60;11.68;;;15.30;99.90;;;;;;4999127;28;20047;-78
2023/09/03 00:27:18;;;;;;;12.45;11.20;;;15.30;99.90;;;;;;5010715;28;20141;-77
2023/09/03 00:29:45;;;;;;;14.75;12.85;;;15.20;99.90;;;;;;4995270;28;20141;-79
2023/09/03 00:32:13;;;;;;;12.52;11.32;;;15.20;99.90;;;;;;4983273;28;20049;-75
2023/09/03 00:34:41;;;;;;;19.60;14.60;;;15.20;99.90;;;;;;4980631;28;20039;-79
2023/09/03 00:37:08;;;;;;;13.77;12.13;;;15.30;99.90;;;;;;4979353;28;20051;-76
2023/09/03 00:39:36;;;;;;;13.65;11.90;;;15.30;99.90;;;;;;4979322;28;20446;-76
2023/09/03 00:42:05;;;;;;;13.32;11.77;;;15.20;99.90;;;;;;4978945;28;20070;-78
2023/09/03 00:44:32;;;;;;;14.00;12.32;;;15.20;99.90;;;;;;4975818;28;20283;-77
2023/09/03 00:47:00;;;;;;;13.20;11.90;;;15.20;99.90;;;;;;4980561;28;20046;-77
2023/09/03 00:49:30;;;;;;;14.80;12.32;;;15.10;99.90;;;;;;4981403;28;20124;-78
2023/09/03 00:51:58;;;;;;;13.23;11.90;;;15.00;99.90;;;;;;4981336;28;20058;-78
2023/09/03 00:54:26;;;;;;;14.07;12.07;;;15.00;99.90;;;;;;4998064;28;20042;-75
2023/09/03 00:56:54;;;;;;;13.02;11.63;;;15.00;99.90;;;;;;4978797;28;20043;-76
2023/09/03 00:59:25;;;;;;;13.32;11.93;;;15.00;99.90;;;;;;4980853;28;20217;-76
2023/09/03 01:01:53;;;;;;;16.05;12.98;;;15.00;99.90;;;;;;5005819;28;20126;-76
2023/09/03 01:04:21;;;;;;;14.27;12.77;;;14.90;99.90;;;;;;4988394;28;20051;-76
2023/09/03 01:06:50;;;;;;;12.75;11.20;;;15.00;99.90;;;;;;4988024;28;20042;-76
2023/09/03 01:09:18;;;;;;;14.32;12.68;;;15.00;99.90;;;;;;5010828;28;20058;-76
2023/09/03 01:11:53;;;;;;;14.23;12.63;;;14.90;99.90;;;;;;4986457;28;20111;-77
2023/09/03 01:14:33;;;;;;;12.80;11.50;;;14.90;99.90;;;;;;4985610;28;20693;-76
2023/09/03 01:17:06;;;;;;;13.55;12.25;;;14.90;99.90;;;;;;4978096;28;20085;-75
2023/09/03 01:19:54;;;;;;;13.98;12.60;;;14.90;99.90;;;;;;4978741;28;20069;-76
2023/09/03 01:22:37;;;;;;;13.90;12.30;;;14.80;99.90;;;;;;4978504;28;20098;-76
2023/09/03 01:25:21;;;;;;;13.90;12.60;;;14.80;99.90;;;;;;4996378;28;20053;-77
2023/09/03 01:27:56;;;;;;;14.75;13.23;;;14.70;99.90;;;;;;4981806;28;20046;-75
2023/09/03 01:30:26;;;;;;;14.40;13.00;;;14.70;99.90;;;;;;4980140;28;20045;-77
2023/09/03 01:32:54;;;;;;;14.25;12.82;;;14.70;99.90;;;;;;4979310;28;20513;-78
2023/09/03 01:35:23;;;;;;;14.57;13.18;;;14.60;99.90;;;;;;4975029;28;20046;-76
2023/09/03 01:37:51;;;;;;;15.18;12.45;;;14.50;99.90;;;;;;4980697;28;20074;-79
2023/09/03 01:40:19;;;;;;;14.65;13.00;;;14.50;99.90;;;;;;4980496;28;20105;-75
2023/09/03 01:42:47;;;;;;;16.05;14.15;;;14.50;99.90;;;;;;4979925;28;20514;-78
2023/09/03 01:45:14;;;;;;;14.70;13.20;;;14.50;99.90;;;;;;4980015;28;20049;-79
2023/09/03 01:47:50;;;;;;;14.43;12.93;;;14.50;99.90;;;;;;4978780;28;20514;-76
2023/09/03 01:50:25;;;;;;;13.70;12.27;;;14.50;99.90;;;;;;5002719;28;20436;-76
2023/09/03 01:53:00;;;;;;;13.73;11.98;;;14.50;99.90;;;;;;4979163;28;20073;-76
2023/09/03 01:55:31;;;;;;;13.65;12.35;;;14.50;99.90;;;;;;4981378;28;20050;-76
2023/09/03 01:58:03;;;;;;;14.10;12.07;;;14.50;99.90;;;;;;4977484;28;20101;-77
2023/09/03 02:00:31;;;;;;;14.23;12.75;;;14.40;99.90;;;;;;4979652;28;20638;-77
2023/09/03 02:03:02;;;;;;;14.00;12.40;;;14.50;99.90;;;;;;4976714;28;20039;-76
2023/09/03 02:05:29;;;;;;;14.07;12.57;;;14.40;99.90;;;;;;4979324;28;20498;-79
2023/09/03 02:07:57;;;;;;;15.85;13.00;;;14.40;99.90;;;;;;4976822;28;20098;-79
2023/09/03 02:10:25;;;;;;;16.50;13.25;;;14.40;99.90;;;;;;4975826;28;20131;-77
2023/09/03 02:12:52;;;;;;;14.93;13.38;;;14.30;99.90;;;;;;4979849;28;20042;-77
2023/09/03 02:15:20;;;;;;;13.90;12.45;;;14.50;99.90;;;;;;4980563;28;20108;-76
2023/09/03 02:17:47;;;;;;;14.07;12.63;;;14.40;99.90;;;;;;4984238;28;20144;-74
2023/09/03 02:20:16;;;;;;;14.35;12.85;;;14.50;99.90;;;;;;4994842;28;20047;-76
2023/09/03 02:22:44;;;;;;;14.95;13.30;;;14.50;99.90;;;;;;4986494;28;20117;-77
2023/09/03 02:25:12;;;;;;;13.82;12.40;;;14.40;99.90;;;;;;4978222;28;20069;-77
2023/09/03 02:27:39;;;;;;;15.43;14.02;;;14.30;99.90;;;;;;4977725;28;20121;-79
2023/09/03 02:30:08;;;;;;;16.13;14.30;;;14.20;99.90;;;;;;4976209;28;20046;-78
2023/09/03 02:32:36;;;;;;;15.52;14.07;;;14.20;99.90;;;;;;4975979;28;20043;-75
2023/09/03 02:35:03;;;;;;;14.77;13.38;;;14.10;99.90;;;;;;4976941;28;20503;-77
2023/09/03 02:37:32;;;;;;;15.93;13.30;;;14.10;99.90;;;;;;4975152;28;20078;-78
2023/09/03 02:40:00;;;;;;;14.90;13.43;;;14.20;99.90;;;;;;4980405;28;20042;-79
2023/09/03 02:42:27;;;;;;;16.30;13.30;;;14.20;99.90;;;;;;4980587;28;20047;-76
2023/09/03 02:44:56;;;;;;;14.85;13.35;;;14.20;99.90;;;;;;4978516;28;20109;-79
2023/09/03 02:47:23;;;;;;;15.88;14.27;;;14.10;99.90;;;;;;4979031;28;20085;-79
2023/09/03 02:49:51;;;;;;;15.88;14.27;;;14.00;99.90;;;;;;4982315;28;20093;-77
2023/09/03 02:52:18;;;;;;;17.00;13.75;;;13.90;99.90;;;;;;4982368;28;20038;-78
2023/09/03 02:54:47;;;;;;;15.85;14.02;;;13.80;99.90;;;;;;4979666;28;20137;-75
2023/09/03 02:57:15;;;;;;;14.27;12.80;;;13.80;99.90;;;;;;4978671;28;20066;-76
2023/09/03 02:59:45;;;;;;;14.95;12.45;;;13.90;99.90;;;;;;4979302;28;20049;-78
2023/09/03 03:02:13;;;;;;;15.98;13.07;;;13.90;99.90;;;;;;4996639;28;20045;-78
2023/09/03 03:04:41;;;;;;;15.00;12.85;;;13.90;99.90;;;;;;5003395;28;20035;-75
2023/09/03 03:07:08;;;;;;;13.93;12.52;;;14.00;99.90;;;;;;4995206;28;20053;-75
2023/09/03 03:09:36;;;;;;;14.52;13.05;;;14.00;99.90;;;;;;4988655;28;20383;-76
2023/09/03 03:12:06;;;;;;;14.73;13.30;;;13.90;99.90;;;;;;4973362;28;20498;-79
2023/09/03 03:14:34;;;;;;;15.30;13.00;;;13.90;99.90;;;;;;4978079;28;20082;-75
2023/09/03 03:17:02;;;;;;;14.35;12.85;;;13.90;99.90;;;;;;4993275;28;20043;-75
2023/09/03 03:19:30;;;;;;;13.73;12.32;;;13.90;99.90;;;;;;4979956;28;20050;-76
2023/09/03 03:21:59;;;;;;;14.73;13.23;;;13.90;99.90;;;;;;4980585;28;20759;-76
2023/09/03 03:24:27;;;;;;;14.65;12.57;;;13.90;99.90;;;;;;4982364;28;20039;-76
2023/09/03 03:26:54;;;;;;;15.02;13.07;;;14.00;99.90;;;;;;4979294;28;20456;-78
2023/09/03 03:29:28;;;;;;;14.73;13.23;;;13.90;99.90;;;;;;4982004;28;20101;-77
2023/09/03 03:31:55;;;;;;;14.82;13.23;;;14.00;99.90;;;;;;4982280;28;20047;-76
2023/09/03 03:34:23;;;;;;;14.50;13.07;;;13.90;99.90;;;;;;4980960;28;20057;-77
2023/09/03 03:36:55;;;;;;;14.20;12.75;;;13.80;99.90;;;;;;4983970;28;20255;-78
2023/09/03 03:39:23;;;;;;;16.25;13.43;;;13.80;99.90;;;;;;4979626;28;20054;-79
2023/09/03 03:41:51;;;;;;;15.40;13.70;;;13.70;99.90;;;;;;4978414;28;20134;-77
2023/09/03 03:44:19;;;;;;;16.25;13.52;;;13.70;99.90;;;;;;4981764;28;20043;-78
2023/09/03 03:46:48;;;;;;;16.30;13.23;;;13.70;99.90;;;;;;4980692;28;20039;-76
2023/09/03 03:49:16;;;;;;;15.15;13.23;;;13.70;99.90;;;;;;4981215;28;20498;-79
2023/09/03 03:51:43;;;;;;;16.88;12.68;;;13.70;99.90;;;;;;4980608;28;20047;-76
2023/09/03 03:54:12;;;;;;;17.23;13.45;;;13.70;99.90;;;;;;4980494;28;20046;-79
2023/09/03 03:56:42;;;;;;;26.85;13.50;;;13.60;99.90;;;;;;4979002;28;20047;-77
2023/09/03 03:59:09;;;;;;;14.93;12.65;;;13.60;99.90;;;;;;4981602;28;20051;-75
2023/09/03 04:01:37;;;;;;;17.48;13.50;;;13.50;99.90;;;;;;4983272;28;20038;-76
2023/09/03 04:04:07;;;;;;;18.95;14.02;;;13.50;99.90;;;;;;4981359;28;20160;-75
2023/09/03 04:06:34;;;;;;;19.75;14.82;;;13.50;99.90;;;;;;4982076;28;20043;-75
2023/09/03 04:09:02;;;;;;;16.05;13.52;;;13.50;99.90;;;;;;4994373;28;20049;-75
2023/09/03 04:11:30;;;;;;;15.38;13.88;;;13.60;99.90;;;;;;4996394;28;20056;-77
2023/09/03 04:13:58;;;;;;;21.88;14.43;;;13.60;99.90;;;;;;4988759;28;20632;-79
2023/09/03 04:16:25;;;;;;;15.38;12.88;;;13.60;99.90;;;;;;4979178;28;20490;-77
2023/09/03 04:18:54;;;;;;;16.17;12.75;;;13.60;99.90;;;;;;5011473;23;20050;-75
2023/09/03 04:21:23;;;;;;;15.30;12.55;;;13.50;99.90;;;;;;5003926;28;20137;-76
2023/09/03 04:23:50;;;;;;;15.43;12.70;;;13.50;99.90;;;;;;5002496;28;20553;-73
2023/09/03 04:26:18;;;;;;;16.50;12.82;;;13.50;99.90;;;;;;4982472;28;20049;-74
2023/09/03 04:28:52;;;;;;;16.17;13.75;;;13.60;99.90;;;;;;4984775;28;20065;-72
2023/09/03 04:31:20;;;;;;;17.00;13.32;;;13.60;99.90;;;;;;4985186;28;20501;-74
2023/09/03 04:33:48;;;;;;;17.20;13.20;;;13.60;99.90;;;;;;4987301;28;20034;-74
2023/09/03 04:36:18;;;;;;;14.65;13.13;;;13.70;99.90;;;;;;4985234;28;20049;-74
2023/09/03 04:38:47;;;;;;;15.00;13.40;;;13.70;99.90;;;;;;5013532;28;20042;-74
2023/09/03 04:41:18;;;;;;;16.10;13.02;;;13.80;99.90;;;;;;4996175;28;20049;-74
2023/09/03 04:44:09;;;;;;;15.20;12.20;;;13.80;99.90;;;;;;4996996;28;20336;-76
2023/09/03 04:46:41;;;;;;;14.30;12.13;;;13.90;99.90;;;;;;5010468;28;20585;-75
2023/09/03 04:49:09;;;;;;;15.77;11.95;;;14.00;99.90;;;;;;4986041;28;20042;-73
2023/09/03 04:51:37;;;;;;;14.73;12.50;;;14.10;99.90;;;;;;5002980;28;20042;-74
2023/09/03 04:54:06;;;;;;;13.80;12.15;;;14.10;99.90;;;;;;4993159;28;20093;-74
2023/09/03 04:56:34;;;;;;;18.88;12.95;;;14.10;99.90;;;;;;4986848;28;20283;-75
2023/09/03 04:59:01;;;;;;;16.13;12.13;;;14.20;99.90;;;;;;4984168;28;20123;-75
2023/09/03 05:01:30;;;;;;;14.00;12.45;;;14.20;99.90;;;;;;5007366;28;20046;-74
2023/09/03 05:03:59;;;;;;;16.08;13.70;;;14.30;99.90;;;;;;4992689;28;20049;-74
2023/09/03 05:06:27;;;;;;;21.80;17.77;;;14.40;99.90;;;;;;5010784;28;20064;-74
2023/09/03 05:08:58;;;;;;;17.45;15.48;;;14.40;99.90;;;;;;4984620;28;20049;-73
2023/09/03 05:11:28;;;;;;;16.65;14.85;;;14.50;99.90;;;;;;4999293;28;20545;-75
2023/09/03 05:13:56;;;;;;;19.63;15.38;;;14.50;99.90;;;;;;4975758;28;20066;-74
2023/09/03 05:16:23;;;;;;;22.98;15.15;;;14.60;99.90;;;;;;4983497;28;20611;-74
2023/09/03 05:18:52;;;;;;;16.02;14.40;;;14.70;99.90;;;;;;4992034;28;20049;-73
2023/09/03 05:21:20;;;;;;;15.05;13.52;;;14.80;99.90;;;;;;4982017;28;20137;-75
2023/09/03 05:23:49;;;;;;;14.50;12.95;;;14.90;99.90;;;;;;4984728;28;20627;-75
2023/09/03 05:26:16;;;;;;;16.45;14.77;;;14.90;99.90;;;;;;4986358;28;20084;-75
2023/09/03 05:28:45;;;;;;;15.57;13.43;;;15.10;99.90;;;;;;5010403;28;20422;-74
2023/09/03 05:31:13;;;;;;;12.60;11.40;;;15.30;99.90;;;;;;4989937;28;20057;-75
2023/09/03 05:33:42;;;;;;;15.80;12.27;;;15.50;99.90;;;;;;4987086;28;20045;-76
2023/09/03 05:36:11;;;;;;;13.77;11.77;;;15.60;99.90;;;;;;4983157;28;20046;-74
2023/09/03 05:38:42;;;;;;;17.05;11.95;;;15.80;99.90;;;;;;4984520;28;20054;-73
2023/09/03 05:41:11;;;;;;;15.25;11.32;;;16.10;99.90;;;;;;5007368;28;20042;-75
2023/09/03 05:43:39;;;;;;;14.52;10.88;;;16.40;99.90;;;;;;4992037;28;20144;-74
2023/09/03 05:46:08;;;;;;;15.55;11.15;;;16.70;99.90;;;;;;5008169;28;20406;-74
2023/09/03 05:48:36;;;;;;;15.30;13.05;;;16.90;99.90;;;;;;4984036;28;20510;-75
2023/09/03 05:51:08;;;;;;;13.10;11.18;;;17.20;99.90;;;;;;4990498;28;20656;-74
2023/09/03 05:53:39;;;;;;;17.13;12.77;;;17.30;99.90;;;;;;4990897;28;20490;-76
2023/09/03 05:56:07;;;;;;;18.20;13.27;;;17.70;99.90;;;;;;4982985;28;20749;-74
2023/09/03 05:58:36;;;;;;;11.55;10.25;;;18.00;99.90;;;;;;4983082;28;20046;-76
2023/09/03 06:01:05;;;;;;;10.40;9.32;;;18.40;99.90;;;;;;4990535;28;20064;-73
2023/09/03 06:03:34;;;;;;;16.65;11.50;;;18.60;99.90;;;;;;4983617;28;20145;-74
2023/09/03 06:06:03;;;;;;;10.43;9.02;;;18.70;99.90;;;;;;4982141;28;20065;-74
2023/09/03 06:08:32;;;;;;;22.75;11.88;;;18.80;99.90;;;;;;4984678;28;20129;-74
2023/09/03 06:11:01;;;;;;;11.85;9.48;;;19.00;99.90;;;;;;4982419;28;20049;-74
2023/09/03 06:13:29;;;;;;;18.40;10.30;;;19.30;99.90;;;;;;4982550;28;20065;-74
2023/09/03 06:15:57;;;;;;;10.45;9.35;;;19.60;99.90;;;;;;4985138;28;20045;-74
2023/09/03 06:18:25;;;;;;;12.02;10.63;;;20.00;99.90;;;;;;4981363;28;20057;-75
2023/09/03 06:20:55;;;;;;;13.65;10.88;;;20.40;99.90;;;;;;4985236;28;20058;-75
2023/09/03 06:23:22;;;;;;;13.35;11.57;;;20.40;99.90;;;;;;5003372;28;20109;-77
2023/09/03 06:25:51;;;;;;;12.05;10.80;;;20.10;99.90;;;;;;4992675;28;20035;-75
2023/09/03 06:28:19;;;;;;;12.98;11.60;;;20.10;99.90;;;;;;4989618;28;20097;-75
2023/09/03 06:30:53;;;;;;;17.65;11.23;;;20.10;99.90;;;;;;4989590;28;20556;-74
2023/09/03 06:33:20;;;;;;;15.77;11.52;;;20.00;99.90;;;;;;5008660;28;20050;-75
2023/09/03 06:35:48;;;;;;;16.35;14.40;;;20.00;99.90;;;;;;4994266;28;20191;-74
2023/09/03 06:38:17;;;;;;;19.38;13.90;;;20.10;99.90;;;;;;4984046;28;20038;-75
2023/09/03 06:40:45;;;;;;;15.20;13.35;;;20.10;99.90;;;;;;4984963;28;20553;-75
2023/09/03 06:43:12;;;;;;;16.65;12.23;;;20.20;99.90;;;;;;4987420;28;20042;-75
2023/09/03 06:45:40;;;;;;;14.93;11.40;;;20.50;99.90;;;;;;5008205;28;20062;-73
2023/09/03 06:48:08;;;;;;;23.65;19.50;;;20.60;99.90;;;;;;4999889;28;20092;-73
2023/09/03 06:50:36;;;;;;;15.43;11.20;;;20.80;99.90;;;;;;5000668;28;20506;-73
2023/09/03 06:53:05;;;;;;;14.30;11.50;;;21.00;99.90;;;;;;4982351;28;20038;-74
2023/09/03 06:55:35;;;;;;;12.65;11.02;;;21.10;99.90;;;;;;4996314;28;20053;-74
2023/09/03 06:58:03;;;;;;;13.23;10.57;;;21.30;99.90;;;;;;4990239;28;20110;-74
2023/09/03 07:00:31;;;;;;;14.23;10.52;;;21.50;99.90;;;;;;5023469;28;20042;-76
2023/09/03 07:02:59;;;;;;;11.13;9.23;;;21.80;99.90;;;;;;4998501;28;20045;-73
2023/09/03 07:05:26;;;;;;;11.63;9.93;;;22.10;99.90;;;;;;5014870;28;20070;-74
2023/09/03 07:07:54;;;;;;;13.73;11.10;;;22.30;99.90;;;;;;4992684;28;20507;-74
2023/09/03 07:10:21;;;;;;;12.27;10.30;;;22.50;99.90;;;;;;5000915;28;20101;-75
2023/09/03 07:12:50;;;;;;;14.45;11.60;;;22.70;99.90;;;;;;4988313;28;20038;-75
2023/09/03 07:15:18;;;;;;;14.32;11.07;;;23.00;99.90;;;;;;5021768;28;20105;-75
2023/09/03 07:17:45;;;;;;;11.32;10.00;;;23.20;99.90;;;;;;4985141;28;20042;-75
2023/09/03 07:20:13;;;;;;;12.73;10.52;;;23.50;99.90;;;;;;4988207;28;20093;-75
2023/09/03 07:22:42;;;;;;;19.60;10.75;;;23.80;99.90;;;;;;5013077;28;20185;-74
2023/09/03 07:25:10;;;;;;;15.10;9.73;;;23.90;99.90;;;;;;5005746;28;20038;-75
2023/09/03 07:27:39;;;;;;;14.52;9.98;;;24.00;99.90;;;;;;5001039;28;20101;-75
2023/09/03 07:30:13;;;;;;;13.32;10.63;;;24.00;99.90;;;;;;5000766;28;20069;-75
2023/09/03 07:32:41;;;;;;;12.63;10.32;;;24.10;99.90;;;;;;4983051;28;20046;-75
2023/09/03 07:35:09;;;;;;;18.05;10.50;;;24.20;99.90;;;;;;4979417;28;20038;-75
2023/09/03 07:37:42;;;;;;;11.32;8.43;;;24.50;99.90;;;;;;5000075;28;20038;-81
2023/09/03 07:40:11;;;;;;;11.52;8.60;;;24.70;99.90;;;;;;4982590;28;20042;-76
2023/09/03 07:42:39;;;;;;;9.63;8.13;;;24.90;99.90;;;;;;4987555;28;20046;-75
2023/09/03 07:45:10;;;;;;;10.75;8.10;;;25.10;99.90;;;;;;4993706;28;20045;-76
2023/09/03 07:47:38;;;;;;;15.43;9.35;;;25.20;99.90;;;;;;5007865;28;20218;-75
2023/09/03 07:50:06;;;;;;;11.63;8.10;;;25.30;99.90;;;;;;4981448;28;20038;-74
2023/09/03 07:52:34;;;;;;;7.65;6.85;;;25.40;99.90;;;;;;4981190;28;20112;-77
2023/09/03 07:55:01;;;;;;;11.73;7.65;;;25.40;99.90;;;;;;5007626;28;20034;-75
2023/09/03 07:57:33;;;;;;;12.75;6.90;;;25.50;99.90;;;;;;5003069;28;20117;-76
2023/09/03 08:00:01;;;;;;;12.32;7.30;;;25.70;99.90;;;;;;4992610;28;20148;-77
2023/09/03 08:02:30;;;;;;;10.88;7.90;;;25.80;99.90;;;;;;4982371;28;20125;-74
2023/09/03 08:04:58;;;;;;;10.05;6.95;;;25.70;99.90;;;;;;5002718;28;20030;-76
2023/09/03 08:07:26;;;;;;;11.00;7.50;;;25.80;99.90;;;;;;4983452;28;20499;-77
2023/09/03 08:09:56;;;;;;;13.73;7.00;;;25.90;99.90;;;;;;4986449;28;20101;-75
2023/09/03 08:12:23;;;;;;;11.63;7.53;;;26.00;99.90;;;;;;5009767;28;20077;-77
2023/09/03 08:14:51;;;;;;;15.70;7.80;;;26.00;99.90;;;;;;4985029;28;20156;-76
2023/09/03 08:21:09;;;;;;;13.23;7.70;;;26.40;99.90;;;;;;4973934;28;20120;-77
2023/09/03 08:23:43;;;;;;;14.52;9.43;;;26.70;99.90;;;;;;4972250;28;20058;-77
2023/09/03 08:26:10;;;;;;;18.83;9.50;;;26.80;99.90;;;;;;4981270;28;20066;-74
2023/09/03 08:28:40;;;;;;;11.13;7.82;;;26.80;99.90;;;;;;4970281;28;20047;-73
2023/09/03 08:31:10;;;;;;;13.77;9.10;;;26.90;99.90;;;;;;4986341;28;20151;-74
2023/09/03 08:33:44;;;;;;;19.17;10.43;;;27.00;99.90;;;;;;4963730;28;20137;-78
2023/09/03 08:36:32;;;;;;;35.28;27.17;;;27.00;99.90;;;;;;4962273;28;20057;-74
2023/09/03 08:39:00;;;;;;;17.17;10.68;;;26.90;99.90;;;;;;4966867;28;20043;-78
2023/09/03 08:41:36;;;;;;;20.58;14.40;;;26.80;99.90;;;;;;4965283;28;20487;-76
2023/09/03 08:44:05;;;;;;;42.85;30.27;;;26.70;99.90;;;;;;4977400;28;20082;-75
2023/09/03 08:46:34;;;;;;;15.63;11.68;;;26.60;99.90;;;;;;4978089;28;20058;-75
2023/09/03 08:49:19;;;;;;;14.90;11.15;;;26.70;99.90;;;;;;4976238;28;20077;-78
2023/09/03 08:51:50;;;;;;;15.10;10.95;;;26.70;99.90;;;;;;4970048;28;20075;-77
2023/09/03 08:54:19;;;;;;;16.92;9.98;;;26.50;99.90;;;;;;4965450;28;20054;-76
2023/09/03 08:56:50;;;;;;;11.43;8.75;;;26.60;99.90;;;;;;4973230;28;20090;-75
2023/09/03 08:59:17;;;;;;;14.88;10.90;;;26.50;99.90;;;;;;4970295;28;20045;-74
2023/09/03 09:01:51;;;;;;;14.00;10.35;;;26.40;99.90;;;;;;4970235;28;20054;-75
2023/09/03 09:04:18;;;;;;;11.85;7.75;;;26.40;99.90;;;;;;4978109;28;20049;-74
2023/09/03 09:06:47;;;;;;;13.50;8.07;;;26.60;99.90;;;;;;4979051;28;20082;-74
2023/09/03 09:09:19;;;;;;;10.95;7.50;;;26.70;99.90;;;;;;4978959;28;20051;-75
2023/09/03 09:11:51;;;;;;;14.57;10.57;;;26.70;99.90;;;;;;4980369;28;20061;-73
2023/09/03 09:14:24;;;;;;;17.10;12.93;;;26.60;99.90;;;;;;4981118;28;20055;-76
2023/09/03 09:16:52;;;;;;;8.80;7.90;;;26.50;99.90;;;;;;4981587;28;20050;-76
2023/09/03 09:19:20;;;;;;;12.05;8.35;;;26.50;99.90;;;;;;4987840;28;20047;-76
2023/09/03 09:21:48;;;;;;;20.80;17.80;;;26.50;99.90;;;;;;4999705;28;20070;-74
2023/09/03 09:24:17;;;;;;;20.58;15.23;;;26.50;99.90;;;;;;4995902;28;20149;-75
2023/09/03 09:26:45;;;;;;;14.70;8.02;;;26.60;99.90;;;;;;4998667;28;20046;-77
2023/09/03 09:29:12;;;;;;;13.98;8.00;;;26.60;99.90;;;;;;4997382;28;20066;-74
2023/09/03 09:31:40;;;;;;;10.15;7.80;;;26.70;99.90;;;;;;4990435;28;20042;-74
2023/09/03 09:34:14;;;;;;;9.88;8.80;;;26.80;99.90;;;;;;4993793;28;20050;-76
2023/09/03 09:36:55;;;;;;;10.02;8.80;;;26.80;99.90;;;;;;4992823;28;20057;-73
2023/09/03 09:39:24;;;;;;;9.10;7.72;;;26.80;99.90;;;;;;4987313;28;20057;-72
2023/09/03 09:42:07;;;;;;;12.85;9.27;;;26.90;99.90;;;;;;4990387;28;20108;-74
2023/09/03 09:44:35;;;;;;;11.48;7.63;;;27.00;99.90;;;;;;4988947;28;20058;-75
2023/09/03 09:47:16;;;;;;;11.40;7.20;;;27.10;99.90;;;;;;4985332;28;20047;-74
2023/09/03 09:49:45;;;;;;;12.07;8.02;;;27.30;99.90;;;;;;4982494;28;20069;-75
2023/09/03 09:52:13;;;;;;;11.82;8.50;;;27.30;99.90;;;;;;4983497;28;20113;-74
2023/09/03 09:54:44;;;;;;;8.95;7.80;;;27.50;99.90;;;;;;4981933;28;20051;-76
2023/09/03 09:57:12;;;;;;;9.15;7.65;;;27.40;99.90;;;;;;4981914;28;20101;-75
2023/09/03 09:59:40;;;;;;;11.25;8.73;;;27.50;99.90;;;;;;4982132;28;20039;-75
2023/09/03 10:02:14;;;;;;;10.48;9.02;;;27.50;99.90;;;;;;4984029;28;20129;-75
2023/09/03 10:04:43;;;;;;;11.98;10.65;;;27.50;99.90;;;;;;4980892;28;20125;-75
2023/09/03 10:07:11;;;;;;;12.70;10.48;;;27.60;99.90;;;;;;4982290;28;20038;-75
2023/09/03 10:09:41;;;;;;;8.82;7.95;;;27.60;99.90;;;;;;4985478;28;20110;-75
2023/09/03 10:12:10;;;;;;;9.43;8.15;;;27.70;99.90;;;;;;5004695;28;20047;-75
2023/09/03 10:14:38;;;;;;;9.77;8.45;;;27.80;99.90;;;;;;5004452;28;20085;-75
2023/09/03 10:17:07;;;;;;;10.27;8.57;;;27.90;99.90;;;;;;4995154;28;20034;-77
2023/09/03 10:19:42;;;;;;;10.65;8.55;;;27.90;99.90;;;;;;5013340;28;20057;-76
2023/09/03 10:22:15;;;;;;;11.73;9.93;;;28.00;99.90;;;;;;5007167;28;20037;-75
2023/09/03 10:24:50;;;;;;;10.52;9.20;;;28.00;99.90;;;;;;5021271;28;20026;-74
2023/09/03 10:27:22;;;;;;;8.77;7.88;;;28.30;99.90;;;;;;5016810;28;20077;-75
2023/09/03 10:29:51;;;;;;;13.70;12.30;;;28.60;99.90;;;;;;5001316;28;20042;-74
2023/09/03 10:32:21;;;;;;;10.80;9.65;;;28.80;99.90;;;;;;5000119;28;20137;-76
2023/09/03 10:34:49;;;;;;;10.05;8.10;;;29.00;99.90;;;;;;4999416;28;20053;-74
2023/09/03 10:37:17;;;;;;;9.75;8.75;;;29.00;99.90;;;;;;4999955;28;20065;-75
2023/09/03 10:39:52;;;;;;;10.55;8.85;;;29.00;99.90;;;;;;5000112;28;20045;-74
2023/09/03 10:42:31;;;;;;;12.10;9.25;;;29.00;99.90;;;;;;5008303;28;20060;-75
2023/09/03 10:45:00;;;;;;;11.80;9.60;;;29.20;99.90;;;;;;4991621;28;20062;-75
2023/09/03 10:47:29;;;;;;;13.57;10.05;;;29.50;99.90;;;;;;5010362;28;20050;-75
2023/09/03 10:49:57;;;;;;;12.38;10.30;;;29.70;99.90;;;;;;5010592;28;20042;-75
2023/09/03 10:52:40;;;;;;;9.93;8.93;;;30.20;99.90;;;;;;5004277;28;20053;-75
2023/09/03 10:55:16;;;;;;;10.60;9.30;;;30.20;99.90;;;;;;5002822;28;20062;-75
2023/09/03 10:57:45;;;;;;;10.15;8.52;;;30.00;99.90;;;;;;5013184;28;20482;-76
2023/09/03 11:00:18;;;;;;;9.65;8.32;;;30.20;99.90;;;;;;5016225;28;20058;-74
2023/09/03 11:02:46;;;;;;;10.63;8.68;;;30.20;99.90;;;;;;5021706;28;20030;-75
2023/09/03 11:05:15;;;;;;;12.02;9.43;;;30.20;99.90;;;;;;5022062;28;20046;-76
2023/09/03 11:07:44;;;;;;;11.13;9.60;;;30.10;99.90;;;;;;5019769;28;20057;-74
2023/09/03 11:10:44;;;;;;;9.70;8.55;;;30.10;99.90;;;;;;5002692;28;20053;-76
2023/09/03 11:13:15;;;;;;;14.63;9.20;;;30.30;99.90;;;;;;5000053;28;20110;-77
2023/09/03 11:15:55;;;;;;;10.65;8.52;;;30.40;99.90;;;;;;5000821;28;20101;-74
2023/09/03 11:18:25;;;;;;;14.02;11.52;;;30.40;99.90;;;;;;5000601;28;20054;-76
2023/09/03 11:20:55;;;;;;;18.55;16.63;;;30.40;99.90;;;;;;4999880;28;20046;-76
2023/09/03 11:23:23;;;;;;;13.35;11.50;;;30.60;99.90;;;;;;4999319;28;20104;-76
2023/09/03 11:25:52;;;;;;;12.48;11.00;;;30.70;99.90;;;;;;5002481;28;20047;-78
2023/09/03 11:28:20;;;;;;;10.40;9.32;;;30.80;99.90;;;;;;4984623;28;20068;-75
2023/09/03 11:30:48;;;;;;;14.68;9.95;;;30.70;99.90;;;;;;5001621;28;20048;-77
2023/09/03 11:33:25;;;;;;;10.98;9.40;;;30.60;99.90;;;;;;5001453;28;20046;-75
2023/09/03 11:35:54;;;;;;;9.63;8.70;;;30.50;99.90;;;;;;4998489;28;20046;-75
2023/09/03 11:38:26;;;;;;;9.63;8.55;;;29.70;99.90;;;;;;4983222;28;20046;-75
2023/09/03 11:40:56;;;;;;;9.18;7.60;;;29.70;99.90;;;;;;5002774;28;20050;-76
2023/09/03 11:43:24;;;;;;;9.15;8.18;;;29.60;99.90;;;;;;4998298;28;20037;-77
2023/09/03 11:45:52;;;;;;;9.40;8.50;;;29.90;99.90;;;;;;5002913;28;20466;-77
2023/09/03 11:48:26;;;;;;;9.98;8.98;;;30.10;99.90;;;;;;5002396;28;20405;-74
2023/09/03 11:50:54;;;;;;;11.85;10.52;;;30.30;99.90;;;;;;4988836;28;20050;-78
2023/09/03 11:53:22;;;;;;;12.35;10.43;;;30.60;99.90;;;;;;5003201;28;20042;-75
2023/09/03 11:55:52;;;;;;;10.15;9.02;;;30.80;99.90;;;;;;5005296;28;20046;-77
2023/09/03 11:58:23;;;;;;;14.07;9.93;;;31.00;99.90;;;;;;5003736;28;20045;-75
2023/09/03 12:00:52;;;;;;;11.05;9.18;;;31.10;99.90;;;;;;5005130;28;20066;-76
2023/09/03 12:03:19;;;;;;;11.07;9.65;;;30.80;99.90;;;;;;4981834;28;20499;-74
2023/09/03 12:05:47;;;;;;;13.70;11.45;;;30.90;99.90;;;;;;4999114;28;20138;-74
2023/09/03 12:08:14;;;;;;;14.60;11.20;;;31.10;99.90;;;;;;5000078;28;20041;-76
2023/09/03 12:10:49;;;;;;;14.73;10.80;;;31.00;99.90;;;;;;4987833;28;20050;-75
2023/09/03 12:13:34;;;;;;;12.00;10.55;;;31.00;99.90;;;;;;5008277;28;20045;-76
2023/09/03 12:16:07;;;;;;;12.45;11.20;;;30.90;99.90;;;;;;5008067;28;20045;-76
2023/09/03 12:18:35;;;;;;;14.15;12.75;;;30.80;99.90;;;;;;5002998;28;20483;-76
2023/09/03 12:21:03;;;;;;;12.45;10.57;;;31.00;99.90;;;;;;5004816;28;20060;-74
2023/09/03 12:23:31;;;;;;;14.18;11.27;;;31.10;99.90;;;;;;5001955;28;20053;-76
2023/09/03 12:26:00;;;;;;;13.18;10.82;;;31.20;99.90;;;;;;5003222;28;20061;-75
2023/09/03 12:28:37;;;;;;;13.00;11.68;;;31.10;99.90;;;;;;4985241;28;20116;-77
2023/09/03 12:31:10;;;;;;;11.23;10.18;;;31.20;99.90;;;;;;4985537;28;20046;-73
2023/09/03 12:33:48;;;;;;;10.70;9.70;;;31.30;99.90;;;;;;4986964;28;20049;-76
2023/09/03 12:36:17;;;;;;;12.75;11.48;;;31.40;99.90;;;;;;4985190;28;20065;-76
2023/09/03 12:38:55;;;;;;;15.23;11.15;;;31.50;99.90;;;;;;5003762;28;20085;-74
2023/09/03 12:41:26;;;;;;;12.05;10.85;;;31.30;99.90;;;;;;4986498;28;20517;-77
2023/09/03 12:43:56;;;;;;;11.48;10.27;;;30.90;99.90;;;;;;4987717;28;20129;-75
2023/09/03 12:46:24;;;;;;;13.25;11.30;;;30.70;99.90;;;;;;5001015;28;20397;-76